.
WxDataArchive / Data Records for 2016-02-03
2016-02-02 February 2016 2016-02-04

Data Records for Wednesday, 03 February 2016

Time	Temp	Chill	HIndex	Humid	Dewpt	 Wind 	HiWind	WindDir	Rain 	Barom
-----	----	-----	------	-----	-----	------	------	-------	-----	-----
00:00	56.9	56.9	56.9	89	53.7	2	5	135	0.00	29.456 
00:05	57.0	57.0	57.0	89	53.8	1	3	90	0.00	29.456 
00:10	57.2	57.2	57.2	88	53.7	2	5	90	0.00	29.456 
00:15	57.3	57.3	57.3	87	53.5	1	2	90	0.00	29.455 
00:20	57.6	57.6	57.6	87	53.8	2	6	112	0.00	29.455 
00:25	57.8	57.8	57.8	86	53.6	2	6	112	0.00	29.455 
00:30	58.1	58.1	58.1	85	53.6	3	9	90	0.00	29.452 
00:35	58.4	58.4	58.4	85	53.9	3	8	112	0.00	29.452 
00:40	58.4	58.4	58.4	85	53.9	3	5	112	0.00	29.452 
00:45	58.4	58.4	58.4	85	53.9	2	5	112	0.00	29.441 
00:50	58.4	58.4	58.4	85	53.9	2	6	90	0.00	29.441 
00:55	58.4	58.4	58.4	86	54.2	1	7	90	0.00	29.441 
01:00	58.3	58.3	58.3	86	54.1	2	5	90	0.00	29.450 
01:05	58.3	58.3	58.3	86	54.1	3	7	112	0.00	29.450 
01:10	58.1	58.1	58.1	87	54.2	1	4	90	0.00	29.450 
01:15	58.1	58.1	58.1	87	54.2	3	7	112	0.00	29.436 
01:20	58.1	58.1	58.1	87	54.2	2	7	90	0.00	29.436 
01:25	58.1	58.1	58.1	87	54.2	2	5	90	0.00	29.436 
01:30	58.0	58.0	58.0	87	54.1	2	6	90	0.00	29.436 
01:35	58.0	58.0	58.0	87	54.1	1	4	90	0.00	29.436 
01:40	58.0	58.0	58.0	87	54.1	1	6	90	0.00	29.436 
01:45	58.0	58.0	58.0	87	54.1	0	1	90	0.00	29.432 
01:50	57.8	57.8	57.8	87	54.0	0	3	90	0.00	29.432 
01:55	57.8	57.8	57.8	87	54.0	1	4	68	0.00	29.432 
02:00	58.0	58.0	58.0	87	54.1	2	5	112	0.00	29.414 
02:05	57.8	57.8	57.8	87	54.0	0	2	112	0.00	29.414 
02:10	57.6	57.6	57.6	87	53.8	0	1	112	0.00	29.414 
02:15	57.5	57.5	57.5	88	54.0	0	3	112	0.00	29.435 
02:20	57.3	57.3	57.3	88	53.8	0	2	112	0.00	29.435 
02:25	57.2	57.2	57.2	88	53.7	1	3	112	0.00	29.435 
02:30	57.2	57.2	57.2	88	53.7	0	3	112	0.00	29.446 
02:35	57.2	57.2	57.2	88	53.7	0	2	112	0.00	29.446 
02:40	57.2	57.2	57.2	89	54.0	0	2	112	0.00	29.446 
02:45	57.2	57.2	57.2	89	54.0	0	2	112	0.00	29.444 
02:50	57.3	57.3	57.3	89	54.1	0	2	112	0.00	29.444 
02:55	57.2	57.2	57.2	89	54.0	0	1	112	0.00	29.444 
03:00	57.3	57.3	57.3	89	54.1	0	1	112	0.00	29.432 
03:05	57.3	57.3	57.3	90	54.4	0	1	112	0.00	29.432 
03:10	57.3	57.3	57.3	90	54.4	0	1	112	0.00	29.432 
03:15	57.2	57.2	57.2	90	54.3	0	1	112	0.00	29.437 
03:20	57.0	57.0	57.0	90	54.1	0	0	---	0.00	29.437 
03:25	56.9	56.9	56.9	90	54.0	0	1	112	0.00	29.437 
03:30	56.9	56.9	56.9	90	54.0	0	0	---	0.00	29.442 
03:35	56.7	56.7	56.7	90	53.8	0	0	---	0.00	29.442 
03:40	56.6	56.6	56.6	90	53.7	0	1	112	0.00	29.442 
03:45	56.6	56.6	56.6	91	54.0	0	2	112	0.00	29.452 
03:50	56.6	56.6	56.6	91	54.0	0	1	112	0.00	29.452 
03:55	56.6	56.6	56.6	91	54.0	0	3	112	0.00	29.452 
04:00	56.5	56.5	56.5	91	53.9	0	1	112	0.00	29.444 
04:05	56.3	56.3	56.3	91	53.7	0	2	112	0.00	29.444 
04:10	56.0	56.0	56.0	91	53.4	1	3	112	0.00	29.444 
04:15	55.9	55.9	55.9	90	53.0	0	2	112	0.00	29.448 
04:20	55.7	55.7	55.7	90	52.8	1	2	112	0.00	29.448 
04:25	55.6	55.6	55.6	90	52.7	2	4	270	0.00	29.448 
04:30	55.6	55.6	55.6	90	52.7	1	3	270	0.00	29.444 
04:35	55.4	55.4	55.4	90	52.5	1	3	270	0.00	29.444 
04:40	55.3	55.3	55.3	90	52.4	1	4	270	0.00	29.444 
04:45	55.1	55.1	55.1	90	52.2	1	4	270	0.00	29.443 
04:50	55.0	55.0	55.0	90	52.1	1	3	225	0.00	29.443 
04:55	54.8	54.8	54.8	90	51.9	0	2	225	0.00	29.443 
05:00	54.5	54.5	54.5	90	51.6	0	3	225	0.00	29.453 
05:05	54.2	54.2	54.2	90	51.3	1	2	225	0.00	29.453 
05:10	54.1	54.1	54.1	90	51.2	0	2	225	0.00	29.453 
05:15	53.9	53.9	53.9	90	51.0	0	2	225	0.00	29.457 
05:20	53.5	53.5	53.5	90	50.6	0	3	225	0.00	29.457 
05:25	53.2	53.2	53.2	90	50.3	0	3	225	0.00	29.457 
05:30	52.9	52.9	52.9	90	50.0	0	2	225	0.00	29.462 
05:35	52.8	52.8	52.8	91	50.2	0	1	225	0.00	29.462 
05:40	52.5	52.5	52.5	91	49.9	0	2	225	0.00	29.462 
05:45	52.3	52.3	52.3	91	49.8	0	2	225	0.00	29.474 
05:50	52.2	52.2	52.2	91	49.7	0	1	225	0.00	29.474 
05:55	51.9	51.9	51.9	91	49.4	0	2	225	0.00	29.474 
06:00	51.9	51.9	51.9	91	49.4	0	0	---	0.00	29.480 
06:05	51.7	51.7	51.7	92	49.5	0	2	225	0.00	29.480 
06:10	51.6	51.6	51.6	92	49.4	0	3	225	0.00	29.480 
06:15	51.4	51.4	51.4	92	49.2	0	2	225	0.00	29.487 
06:20	51.3	51.3	51.3	92	49.1	0	1	225	0.00	29.487 
06:25	51.3	51.3	51.3	92	49.1	0	3	225	0.00	29.487 
06:30	51.4	51.4	51.4	92	49.2	0	2	225	0.00	29.491 
06:35	51.4	51.4	51.4	92	49.2	0	2	225	0.00	29.491 
06:40	51.4	51.4	51.4	92	49.2	0	1	225	0.00	29.491 
06:45	51.3	51.3	51.3	92	49.1	1	4	225	0.00	29.498 
06:50	51.3	51.3	51.3	92	49.1	1	4	225	0.00	29.498 
06:55	51.1	51.1	51.1	92	48.9	0	3	248	0.00	29.498 
07:00	51.0	51.0	51.0	92	48.8	1	4	248	0.00	29.504 
07:05	50.8	50.8	50.8	92	48.6	0	2	248	0.00	29.504 
07:10	50.5	50.5	50.5	91	48.0	0	1	248	0.00	29.504 
07:15	50.2	50.2	50.2	91	47.7	0	1	248	0.00	29.509 
07:20	49.9	49.9	49.9	91	47.4	0	2	248	0.00	29.509 
07:25	49.6	49.6	49.6	91	47.1	0	2	248	0.00	29.509 
07:30	49.4	49.4	49.4	91	46.9	0	2	248	0.00	29.516 
07:35	49.2	49.2	49.2	91	46.7	0	2	248	0.00	29.516 
07:40	48.8	48.8	48.8	91	46.3	0	2	248	0.00	29.516 
07:45	48.5	48.5	48.5	91	46.0	0	2	248	0.00	29.522 
07:50	48.2	48.2	48.2	92	46.0	0	2	248	0.00	29.522 
07:55	48.0	48.0	48.0	91	45.5	1	2	248	0.00	29.522 
08:00	47.9	47.9	47.9	91	45.4	0	2	248	0.00	29.529 
08:05	47.6	47.6	47.6	91	45.1	0	2	248	0.00	29.529 
08:10	47.3	47.3	47.3	91	44.8	1	6	248	0.00	29.529 
08:15	47.1	47.1	47.1	91	44.6	1	4	248	0.00	29.541 
08:20	47.0	47.0	47.0	90	44.2	1	4	248	0.00	29.541 
08:25	46.8	46.8	46.8	88	43.4	1	6	248	0.00	29.541 
08:30	46.8	46.8	46.8	87	43.1	1	4	225	0.00	29.553 
08:35	47.0	47.0	47.0	85	42.7	1	4	225	0.00	29.553 
08:40	47.0	47.0	47.0	84	42.4	1	6	225	0.00	29.553 
08:45	47.0	47.0	47.0	82	41.8	1	4	270	0.00	29.558 
08:50	47.1	47.1	47.1	80	41.3	1	5	248	0.00	29.558 
08:55	47.3	47.3	47.3	78	40.8	2	6	270	0.00	29.558 
09:00	47.3	47.3	47.3	77	40.5	1	4	270	0.00	29.571 
09:05	47.3	47.3	47.3	76	40.1	1	5	270	0.00	29.571 
09:10	47.4	47.4	47.4	76	40.2	1	4	248	0.00	29.571 
09:15	47.4	47.4	47.4	76	40.2	2	5	248	0.00	29.572 
09:20	47.4	47.4	47.4	76	40.2	1	4	248	0.00	29.572 
09:25	47.6	47.6	47.6	76	40.4	1	6	248	0.00	29.572 
09:30	47.6	47.6	47.6	75	40.1	3	6	248	0.00	29.572 
09:35	47.6	47.6	47.6	73	39.4	2	7	225	0.00	29.572 
09:40	47.6	47.6	47.6	72	39.0	3	6	248	0.00	29.572 
09:45	47.4	47.4	47.4	72	38.8	3	11	248	0.00	29.576 
09:50	47.3	47.3	47.3	71	38.4	2	6	270	0.00	29.576 
09:55	47.1	47.1	47.1	71	38.2	1	4	270	0.00	29.576 
10:00	47.0	47.0	47.0	72	38.4	1	3	270	0.00	29.585 
10:05	47.1	47.1	47.1	71	38.2	2	5	270	0.00	29.585 
10:10	47.0	47.0	47.0	70	37.7	2	6	248	0.00	29.585 
10:15	46.7	46.7	46.7	71	37.8	3	6	270	0.00	29.593 
10:20	46.1	46.1	46.1	72	37.6	3	6	270	0.00	29.593 
10:25	45.4	45.4	45.4	72	36.9	3	6	270	0.00	29.593 
10:30	44.5	44.5	44.5	73	36.4	3	6	270	0.00	29.602 
10:35	44.1	44.1	44.1	74	36.4	2	5	292	0.00	29.602 
10:40	43.9	43.9	43.9	75	36.5	2	5	270	0.00	29.602 
10:45	44.2	44.2	44.2	75	36.8	1	5	292	0.00	29.613 
10:50	44.1	44.1	44.1	74	36.4	3	5	270	0.00	29.613 
10:55	43.9	43.9	43.9	74	36.2	2	4	270	0.00	29.613 
11:00	43.9	43.9	43.9	74	36.2	2	4	270	0.00	29.622 
11:05	43.9	43.9	43.9	74	36.2	2	5	270	0.00	29.622 
11:10	43.5	43.5	43.5	73	35.4	3	5	270	0.00	29.622 
11:15	43.5	43.5	43.5	73	35.4	2	5	248	0.00	29.628 
11:20	43.6	43.6	43.6	73	35.5	1	5	270	0.00	29.628 
11:25	44.3	44.3	44.3	74	36.5	1	5	248	0.00	29.628 
11:30	45.1	45.1	45.1	73	37.0	1	4	248	0.00	29.627 
11:35	45.2	45.2	45.2	69	35.6	3	7	248	0.00	29.627 
11:40	44.8	44.8	44.8	69	35.3	2	6	270	0.00	29.627 
11:45	44.6	44.6	44.6	70	35.4	2	6	248	0.00	29.630 
11:50	44.2	42.2	44.2	67	33.9	4	11	248	0.00	29.630 
11:55	43.8	41.7	43.8	68	33.9	4	10	248	0.00	29.630 
12:00	43.1	40.9	43.1	69	33.6	4	9	248	0.00	29.646 
12:05	42.5	42.5	42.5	69	33.1	3	5	270	0.00	29.646 
12:10	42.5	42.5	42.5	69	33.1	3	6	270	0.00	29.646 
12:15	42.9	40.7	42.9	68	33.1	4	7	270	0.00	29.645 
12:20	43.3	43.3	43.3	66	32.7	3	7	248	0.00	29.645 
12:25	43.3	43.3	43.3	66	32.7	2	5	248	0.00	29.645 
12:30	43.1	43.1	43.1	65	32.1	3	8	270	0.00	29.648 
12:35	42.9	42.9	42.9	66	32.3	2	5	248	0.00	29.648 
12:40	43.1	43.1	43.1	67	32.9	1	4	248	0.00	29.648 
12:45	42.9	42.9	42.9	66	32.3	2	6	248	0.00	29.658 
12:50	42.8	42.8	42.8	68	33.0	3	9	248	0.00	29.658 
12:55	42.8	40.6	42.8	67	32.6	4	9	248	0.00	29.658 
13:00	42.6	39.5	42.6	65	31.7	5	12	248	0.00	29.661 
13:05	42.5	40.2	42.5	64	31.2	4	10	248	0.00	29.661 
13:10	42.5	42.5	42.5	66	32.0	2	5	248	0.00	29.661 
13:15	42.2	39.1	42.2	65	31.3	5	10	270	0.00	29.667 
13:20	41.9	41.9	41.9	65	31.0	3	9	270	0.00	29.667 
13:25	41.8	41.8	41.8	65	30.9	3	7	270	0.00	29.667 
13:30	41.6	39.2	41.6	65	30.7	4	7	270	0.00	29.670 
13:35	41.5	41.5	41.5	66	31.0	2	7	225	0.00	29.670 
13:40	41.5	41.5	41.5	68	31.7	2	5	270	0.00	29.670 
13:45	41.3	41.3	41.3	67	31.2	3	6	248	0.00	29.679 
13:50	40.9	37.5	40.9	66	30.4	5	10	248	0.00	29.679 
13:55	40.8	40.8	40.8	68	31.1	2	12	270	0.00	29.679 
14:00	40.6	40.6	40.6	68	30.9	3	9	248	0.00	29.678 
14:05	40.6	40.6	40.6	68	30.9	3	6	248	0.00	29.678 
14:10	40.6	40.6	40.6	68	30.9	2	6	248	0.00	29.678 
14:15	40.5	40.5	40.5	68	30.8	3	7	248	0.00	29.681 
14:20	40.2	37.5	40.2	68	30.5	4	13	248	0.00	29.681 
14:25	40.1	40.1	40.1	69	30.8	3	9	248	0.00	29.681 
14:30	40.1	40.1	40.1	68	30.4	3	8	270	0.00	29.689 
14:35	40.1	40.1	40.1	68	30.4	3	9	248	0.00	29.689 
14:40	40.1	40.1	40.1	68	30.4	2	5	270	0.00	29.689 
14:45	40.1	40.1	40.1	69	30.8	1	4	270	0.00	29.694 
14:50	40.1	40.1	40.1	69	30.8	1	6	248	0.00	29.694 
14:55	39.9	39.9	39.9	69	30.6	1	5	248	0.00	29.694 
15:00	39.9	39.9	39.9	69	30.6	2	6	248	0.00	29.696 
15:05	39.9	39.9	39.9	69	30.6	2	7	248	0.00	29.696 
15:10	39.9	39.9	39.9	69	30.6	1	6	248	0.00	29.696 
15:15	39.9	39.9	39.9	69	30.6	1	4	248	0.00	29.697 
15:20	39.9	39.9	39.9	70	30.9	1	5	248	0.00	29.697 
15:25	39.8	39.8	39.8	70	30.8	2	7	248	0.00	29.697 
15:30	39.6	39.6	39.6	70	30.6	2	7	248	0.00	29.710 
15:35	39.6	39.6	39.6	71	31.0	2	9	248	0.00	29.710 
15:40	39.6	39.6	39.6	69	30.3	2	5	248	0.00	29.710 
15:45	39.6	39.6	39.6	71	31.0	1	4	248	0.00	29.724 
15:50	39.5	39.5	39.5	71	30.9	3	7	248	0.00	29.724 
15:55	39.3	39.3	39.3	72	31.0	3	12	248	0.00	29.724 
16:00	39.3	39.3	39.3	72	31.0	2	9	248	0.00	29.729 
16:05	39.2	39.2	39.2	73	31.3	3	7	248	0.00	29.729 
16:10	39.2	39.2	39.2	74	31.6	3	9	248	0.00	29.729 
16:15	38.9	38.9	38.9	77	32.3	2	7	248	0.00	29.743 
16:20	38.6	38.6	38.6	78	32.3	3	7	248	0.00	29.743 
16:25	38.5	38.5	38.5	79	32.6	2	9	248	0.00	29.743 
16:30	38.5	38.5	38.5	80	32.9	2	6	248	0.00	29.747 
16:35	38.3	38.3	38.3	80	32.7	2	7	248	0.00	29.747 
16:40	38.3	38.3	38.3	79	32.4	2	7	270	0.00	29.747 
16:45	38.2	38.2	38.2	80	32.6	3	7	248	0.00	29.758 
16:50	38.2	38.2	38.2	79	32.3	3	8	248	0.00	29.758 
16:55	38.2	38.2	38.2	78	32.0	2	5	248	0.00	29.758 
17:00	38.2	38.2	38.2	78	32.0	2	7	248	0.00	29.769 
17:05	38.2	38.2	38.2	77	31.6	3	10	248	0.00	29.769 
17:10	38.2	38.2	38.2	77	31.6	2	7	248	0.00	29.769 
17:15	38.2	38.2	38.2	76	31.3	2	6	248	0.00	29.778 
17:20	38.2	38.2	38.2	77	31.6	2	5	248	0.00	29.778 
17:25	38.0	35.0	38.0	78	31.8	4	12	248	0.00	29.778 
17:30	37.6	37.6	37.6	80	32.0	3	7	270	0.00	29.794 
17:35	37.3	37.3	37.3	82	32.3	2	5	248	0.00	29.794 
17:40	37.0	37.0	37.0	83	32.3	2	5	248	0.00	29.794 
17:45	36.8	36.8	36.8	84	32.4	1	7	248	0.00	29.799 
17:50	36.8	36.8	36.8	84	32.4	1	3	248	0.00	29.799 
17:55	36.8	36.8	36.8	84	32.4	1	5	248	0.00	29.799 
18:00	36.8	36.8	36.8	84	32.4	2	6	248	0.00	29.811 
18:05	36.8	36.8	36.8	84	32.4	2	6	248	0.00	29.811 
18:10	36.5	36.5	36.5	85	32.4	1	3	248	0.00	29.811 
18:15	36.3	36.3	36.3	86	32.5	2	6	248	0.00	29.828 
18:20	36.0	36.0	36.0	86	32.2	3	6	248	0.00	29.828 
18:25	35.9	35.9	35.9	87	32.4	2	6	248	0.00	29.828 
18:30	35.8	35.8	35.8	87	32.3	2	4	270	0.00	29.842 
18:35	35.8	35.8	35.8	87	32.3	2	6	270	0.00	29.842 
18:40	35.8	35.8	35.8	87	32.3	2	6	248	0.00	29.842 
18:45	35.6	35.6	35.6	87	32.1	3	7	248	0.00	29.849 
18:50	35.6	35.6	35.6	87	32.1	2	7	248	0.00	29.849 
18:55	35.5	35.5	35.5	87	32.0	1	4	270	0.00	29.849 
19:00	35.3	35.3	35.3	87	31.8	1	4	248	0.00	29.861 
19:05	35.3	35.3	35.3	87	31.8	2	5	248	0.00	29.861 
19:10	35.3	35.3	35.3	87	31.8	1	4	270	0.00	29.861 
19:15	35.2	35.2	35.2	86	31.4	2	5	270	0.00	29.877 
19:20	35.0	35.0	35.0	86	31.2	3	6	248	0.00	29.877 
19:25	35.0	35.0	35.0	85	31.0	3	6	270	0.00	29.877 
19:30	34.9	34.9	34.9	85	30.9	2	4	270	0.00	29.882 
19:35	34.9	34.9	34.9	85	30.9	3	7	270	0.00	29.882 
19:40	34.7	34.7	34.7	85	30.7	2	5	248	0.00	29.882 
19:45	34.7	34.7	34.7	85	30.7	2	5	248	0.00	29.895 
19:50	34.6	34.6	34.6	85	30.6	3	10	248	0.00	29.895 
19:55	34.6	34.6	34.6	85	30.6	3	6	248	0.00	29.895 
20:00	34.4	34.4	34.4	84	30.1	2	6	270	0.00	29.899 
20:05	34.3	30.7	34.3	85	30.3	4	9	270	0.00	29.899 
20:10	34.1	34.1	34.1	85	30.1	3	6	270	0.00	29.899 
20:15	34.0	34.0	34.0	85	30.0	2	5	248	0.00	29.909 
20:20	33.8	33.8	33.8	86	30.1	3	7	270	0.00	29.909 
20:25	33.8	33.8	33.8	85	29.8	2	5	270	0.00	29.909 
20:30	33.8	33.8	33.8	85	29.8	2	5	248	0.00	29.916 
20:35	33.8	33.8	33.8	84	29.5	2	6	270	0.00	29.916 
20:40	33.7	33.7	33.7	84	29.4	2	6	248	0.00	29.916 
20:45	33.7	33.7	33.7	84	29.4	2	5	248	0.00	29.924 
20:50	33.7	33.7	33.7	84	29.4	2	6	270	0.00	29.924 
20:55	33.7	33.7	33.7	84	29.4	2	5	270	0.00	29.924 
21:00	33.5	33.5	33.5	84	29.2	2	5	248	0.00	29.933 
21:05	33.5	33.5	33.5	84	29.2	2	9	270	0.00	29.933 
21:10	33.4	33.4	33.4	84	29.1	2	5	248	0.00	29.933 
21:15	33.4	33.4	33.4	84	29.1	1	4	270	0.00	29.943 
21:20	33.2	33.2	33.2	85	29.2	1	5	270	0.00	29.943 
21:25	33.2	33.2	33.2	85	29.2	2	5	248	0.00	29.943 
21:30	33.1	33.1	33.1	85	29.1	2	5	292	0.00	29.946 
21:35	33.1	33.1	33.1	86	29.4	1	4	248	0.00	29.946 
21:40	32.9	32.9	32.9	85	28.9	2	6	248	0.00	29.946 
21:45	32.8	32.8	32.8	85	28.8	2	6	248	0.00	29.952 
21:50	32.8	32.8	32.8	85	28.8	1	4	248	0.00	29.952 
21:55	32.8	32.8	32.8	86	29.1	1	5	248	0.00	29.952 
22:00	32.7	32.7	32.7	85	28.7	2	6	248	0.00	29.960 
22:05	32.5	32.5	32.5	85	28.5	3	6	248	0.00	29.960 
22:10	32.5	32.5	32.5	86	28.8	2	4	270	0.00	29.960 
22:15	32.4	32.4	32.4	85	28.4	2	4	292	0.00	29.966 
22:20	32.4	32.4	32.4	85	28.4	1	4	292	0.00	29.966 
22:25	32.4	32.4	32.4	85	28.4	2	4	248	0.00	29.966 
22:30	32.4	32.4	32.4	85	28.4	2	5	248	0.00	29.969 
22:35	32.2	32.2	32.2	85	28.2	2	6	248	0.00	29.969 
22:40	32.1	32.1	32.1	86	28.4	1	6	248	0.00	29.969 
22:45	32.1	32.1	32.1	86	28.4	1	4	270	0.00	29.972 
22:50	31.9	31.9	31.9	86	28.2	2	6	270	0.00	29.972 
22:55	31.8	31.8	31.8	86	28.1	2	6	270	0.00	29.972 
23:00	31.8	31.8	31.8	86	28.1	2	6	248	0.00	29.979 
23:05	31.8	31.8	31.8	86	28.1	1	4	270	0.00	29.979 
23:10	31.8	31.8	31.8	86	28.1	2	6	270	0.00	29.979 
23:15	31.6	31.6	31.6	86	27.9	1	4	248	0.00	29.981 
23:20	31.6	31.6	31.6	86	27.9	2	5	270	0.00	29.981 
23:25	31.6	31.6	31.6	86	27.9	1	4	248	0.00	29.981 
23:30	31.6	31.6	31.6	86	27.9	1	3	248	0.00	29.985 
23:35	31.6	31.6	31.6	86	27.9	2	5	270	0.00	29.985 
23:40	31.5	31.5	31.5	86	27.8	2	5	292	0.00	29.985 
23:45	31.3	31.3	31.3	86	27.6	1	4	248	0.00	29.991 
23:50	31.2	31.2	31.2	85	27.2	2	4	248	0.00	29.991 
23:55	31.2	31.2	31.2	86	27.5	2	5	248	0.00	29.991 

CoCoRaHS
IN-AL-39
A2 Web Hosting
Creative Commons License
GoDaddy
search engine by freefind advanced

loaded 2018-11-19 18:44:55 • last modified 2010-11-18 10:43:29
Privacy PolicyDisclaimer
• wx.awcolley.com is powered by PmWiki v.2002016 •
• all content (unless otherwise noted) © 2018 A W Colley